KNEL/NEL METAR and TAF weather

Enter ICAO airport designator
Station Type Date Time Source
KNEL METAR 2021/04/18 02:00 UTC NOAA

KNEL 180200Z AUTO 00000KT 10SM OVC065 13/06 A2983 RMK AO2 SLP099 T01280061 $


Station Type Date Time Source
KNEL Decoded METAR 2021/04/18 02:00 UTC NOAA

Lakehurst Naval Air Station, NJ, United States (KNEL) 40-02N 074-19W 24M
Apr 17, 2021 - 10:00 PM EDT / 2021.04.18 0200 UTC
Wind: Calm:0
Visibility: 10 mile(s):0
Sky conditions: overcast
Temperature: 55.0 F (12.8 C)
Dew Point: 43.0 F (6.1 C)
Relative Humidity: 63%
Pressure (altimeter): 29.83 in. Hg (1010 hPa)
ob: KNEL 180200Z AUTO 00000KT 10SM OVC065 13/06 A2983 RMK AO2 SLP099 T01280061
cycle: 2

Station Type Date Time Source
KNEL TAF UTC NOAA

Error!

Example: see airport list